YSNW/NOA METAR and TAF weather

Enter ICAO airport designator
Station Type Date Time Source
YSNW METAR 2019/11/18 11:00 UTC NOAA

YSNW 181100Z AUTO 29011KT 9999 // NCD 25/M00 Q1011


Station Type Date Time Source
YSNW Decoded METAR 2019/11/18 11:00 UTC NOAA

Nowra Ran Air Station, Australia (YSNW) 34-57S 150-32E 110M
Nov 18, 2019 - 06:00 AM EST / 2019.11.18 1100 UTC
Wind: from the WNW (290 degrees) at 13 MPH (11 KT):0
Visibility: greater than 7 mile(s):0
Temperature: 77 F (25 C)
Dew Point: 32 F (0 C)
Relative Humidity: 19%
Pressure (altimeter): 29.85 in. Hg (1011 hPa)
ob: YSNW 181100Z AUTO 29011KT 9999 // NCD 25/M00 Q1011
cycle: 11

Station Type Date Time Source
YSNW TAF UTC NOAA

Error!

Example: see airport list